Time;durP1;ratioP1;P1;durP2;ratioP2;P2;SDS_P1;SDS_P2;PMS_P1;PMS_P2;Temp;Humidity;BMP_temperature;BMP_pressure;BME280_temperature;BME280_humidity;BME280_pressure;Samples;Min_cycle;Max_cycle;Signal;HPM_P1;HPM_P2
2021/09/13 00:01:07;;;;;;;8.82;4.85;;;;;;;20.18;57.90;101187.75;5053211;28;20053;-65
2021/09/13 00:03:35;;;;;;;12.68;5.30;;;;;;;20.17;57.16;101191.72;5053538;28;20439;-63
2021/09/13 00:06:04;;;;;;;8.13;4.47;;;;;;;20.08;57.74;101191.88;5054823;28;20056;-64
2021/09/13 00:08:31;;;;;;;8.38;4.70;;;;;;;20.12;57.88;101192.78;5039546;28;20060;-64
2021/09/13 00:10:59;;;;;;;12.38;5.43;;;;;;;20.22;57.96;101190.63;5057829;28;20064;-64
2021/09/13 00:13:26;;;;;;;10.70;5.32;;;;;;;20.13;58.19;101193.59;5064215;28;20049;-67
2021/09/13 00:15:54;;;;;;;8.98;4.88;;;;;;;20.10;57.92;101183.94;5057829;28;20049;-68
2021/09/13 00:18:22;;;;;;;10.10;4.70;;;;;;;20.30;57.01;101179.22;5055871;28;20056;-67
2021/09/13 00:20:53;;;;;;;9.05;4.25;;;;;;;20.13;57.56;101177.63;5057603;28;20652;-67
2021/09/13 00:23:21;;;;;;;9.32;4.90;;;;;;;20.03;57.47;101177.41;5057701;28;20053;-67
2021/09/13 00:25:49;;;;;;;9.98;5.00;;;;;;;19.90;58.13;101184.28;5057428;28;20053;-68
2021/09/13 00:28:17;;;;;;;6.90;4.40;;;;;;;19.92;58.97;101177.16;5056979;28;20514;-69
2021/09/13 00:30:45;;;;;;;8.40;4.53;;;;;;;20.18;58.09;101170.97;5022564;28;20052;-68
2021/09/13 00:33:13;;;;;;;8.98;4.72;;;;;;;20.03;57.73;101169.78;5055888;28;20060;-68
2021/09/13 00:35:41;;;;;;;8.23;4.90;;;;;;;19.95;58.44;101165.22;5056136;28;20053;-67
2021/09/13 00:38:08;;;;;;;9.00;4.80;;;;;;;20.08;58.58;101161.13;5055800;28;20402;-68
2021/09/13 00:40:38;;;;;;;8.93;4.78;;;;;;;20.00;58.42;101164.13;5056161;28;20067;-68
2021/09/13 00:43:07;;;;;;;9.55;5.00;;;;;;;19.96;58.80;101150.06;5056051;28;20638;-68
2021/09/13 00:45:35;;;;;;;10.77;4.78;;;;;;;20.02;58.63;101156.19;5070685;28;20127;-68
2021/09/13 00:48:03;;;;;;;10.32;4.90;;;;;;;20.15;58.66;101158.47;5053555;28;20056;-67
2021/09/13 00:50:30;;;;;;;10.52;4.97;;;;;;;19.99;58.62;101157.75;5053581;28;20729;-69
2021/09/13 00:52:57;;;;;;;8.55;4.75;;;;;;;19.85;59.27;101154.63;5055078;28;20060;-67
2021/09/13 00:55:25;;;;;;;8.55;4.35;;;;;;;19.90;59.23;101161.91;5055056;28;20056;-68
2021/09/13 00:57:54;;;;;;;9.23;5.63;;;;;;;19.90;59.14;101159.13;5053486;28;20068;-68
2021/09/13 01:00:21;;;;;;;11.00;4.45;;;;;;;19.92;59.70;101163.19;5054779;28;20064;-68
2021/09/13 01:02:50;;;;;;;10.63;5.30;;;;;;;20.06;59.22;101159.88;5054532;28;20119;-68
2021/09/13 01:05:18;;;;;;;9.93;4.55;;;;;;;19.96;59.16;101158.44;5055726;28;20056;-67
2021/09/13 01:07:45;;;;;;;10.77;5.22;;;;;;;19.87;59.22;101152.28;5054471;28;20056;-68
2021/09/13 01:10:13;;;;;;;9.55;4.43;;;;;;;19.76;59.69;101151.22;5053789;28;20056;-68
2021/09/13 01:12:40;;;;;;;8.95;5.10;;;;;;;19.75;59.88;101157.19;5059828;28;20051;-68
2021/09/13 01:15:08;;;;;;;11.10;4.63;;;;;;;19.80;60.07;101159.69;5036109;28;20054;-68
2021/09/13 01:17:35;;;;;;;10.48;4.85;;;;;;;19.76;60.28;101153.19;5034352;28;20052;-68
2021/09/13 01:20:04;;;;;;;7.97;4.72;;;;;;;19.66;60.29;101159.34;5050392;28;20056;-68
2021/09/13 01:22:35;;;;;;;9.82;4.68;;;;;;;19.78;60.10;101162.84;5034334;28;20049;-68
2021/09/13 01:25:06;;;;;;;11.73;4.55;;;;;;;19.74;60.39;101158.34;5050765;28;20060;-68
2021/09/13 01:27:34;;;;;;;9.13;4.63;;;;;;;19.58;60.30;101161.16;5017299;28;20041;-68
2021/09/13 01:30:06;;;;;;;11.80;4.78;;;;;;;19.50;60.59;101148.22;5050119;28;20053;-68
2021/09/13 01:32:34;;;;;;;10.52;4.78;;;;;;;19.46;60.57;101152.91;5050447;28;20049;-67
2021/09/13 01:35:01;;;;;;;8.15;4.85;;;;;;;19.44;61.27;101146.84;5050743;28;20054;-69
2021/09/13 01:37:32;;;;;;;9.57;5.00;;;;;;;19.45;60.92;101145.69;5035338;28;20033;-67
2021/09/13 01:40:08;;;;;;;9.60;4.60;;;;;;;19.55;60.83;101145.13;5033623;28;20512;-68
2021/09/13 01:42:36;;;;;;;9.32;5.00;;;;;;;19.52;60.47;101139.47;5050555;28;20049;-68
2021/09/13 01:45:04;;;;;;;11.05;4.78;;;;;;;19.52;61.20;101140.28;5049519;28;20046;-67
2021/09/13 01:47:35;;;;;;;11.38;4.70;;;;;;;19.60;61.28;101144.84;5050402;28;20056;-68
2021/09/13 01:50:03;;;;;;;9.40;4.95;;;;;;;19.64;60.63;101137.38;5033565;28;20057;-68
2021/09/13 01:52:30;;;;;;;10.63;4.90;;;;;;;19.63;60.94;101146.91;5050336;28;20057;-69
2021/09/13 01:54:58;;;;;;;7.80;4.40;;;;;;;19.69;61.17;101153.84;5033818;28;20053;-68
2021/09/13 01:57:25;;;;;;;11.38;4.75;;;;;;;19.66;60.84;101146.22;5050382;28;20076;-68
2021/09/13 01:59:53;;;;;;;10.30;5.13;;;;;;;19.58;61.09;101160.38;5033114;28;20061;-69
2021/09/13 02:02:20;;;;;;;8.90;4.90;;;;;;;19.45;61.17;101148.50;5033413;28;20054;-68
2021/09/13 02:04:48;;;;;;;9.07;4.80;;;;;;;19.36;61.42;101150.66;5033266;28;20080;-68
2021/09/13 02:07:18;;;;;;;9.90;5.07;;;;;;;19.33;61.63;101145.81;5049924;28;20054;-68
2021/09/13 02:09:47;;;;;;;13.25;5.03;;;;;;;19.21;62.05;101148.66;5033162;28;20056;-68
2021/09/13 02:12:21;;;;;;;10.68;5.40;;;;;;;19.29;62.07;101144.88;5051278;28;20049;-68
2021/09/13 02:14:49;;;;;;;9.18;4.80;;;;;;;19.22;62.09;101150.28;5058271;28;20420;-68
2021/09/13 02:17:17;;;;;;;10.55;5.25;;;;;;;19.32;62.16;101141.38;5053303;28;20053;-68
2021/09/13 02:19:46;;;;;;;10.45;5.13;;;;;;;19.50;61.09;101141.81;5069566;28;20479;-68
2021/09/13 02:22:15;;;;;;;10.07;5.57;;;;;;;18.90;62.10;101143.88;5052774;28;20064;-68
2021/09/13 02:24:42;;;;;;;7.78;5.20;;;;;;;19.14;62.35;101142.09;5053279;28;20063;-67
2021/09/13 02:27:10;;;;;;;13.32;5.63;;;;;;;19.05;61.36;101143.09;5054559;28;20511;-67
2021/09/13 02:29:37;;;;;;;12.93;4.80;;;;;;;18.80;62.27;101149.16;5069097;28;20427;-68
2021/09/13 02:32:05;;;;;;;11.75;4.90;;;;;;;18.34;62.65;101149.84;5052962;28;20044;-67
2021/09/13 02:34:33;;;;;;;8.38;4.50;;;;;;;18.01;62.46;101158.41;5052635;28;20590;-67
2021/09/13 02:37:00;;;;;;;12.88;4.65;;;;;;;18.34;63.79;101156.22;5054101;28;20052;-68
2021/09/13 02:39:29;;;;;;;9.67;3.87;;;;;;;18.49;61.83;101152.72;5052826;28;20408;-69
2021/09/13 02:41:56;;;;;;;7.90;3.67;;;;;;;18.05;61.92;101153.78;5069286;28;20770;-67
2021/09/13 02:44:25;;;;;;;10.73;3.72;;;;;;;18.16;63.08;101159.66;5052451;28;20052;-67
2021/09/13 02:46:54;;;;;;;10.97;3.90;;;;;;;18.55;62.00;101144.91;5052414;28;20053;-67
2021/09/13 02:49:21;;;;;;;6.90;3.83;;;;;;;18.85;61.42;101149.72;5053807;28;20056;-67
2021/09/13 02:51:49;;;;;;;11.18;3.85;;;;;;;18.81;61.08;101148.00;5069080;28;20503;-67
2021/09/13 02:54:16;;;;;;;6.65;3.70;;;;;;;18.33;61.09;101142.63;5052764;28;20052;-68
2021/09/13 02:56:45;;;;;;;12.77;4.20;;;;;;;18.39;61.67;101141.22;5052663;28;20056;-67
2021/09/13 02:59:14;;;;;;;9.00;4.10;;;;;;;18.39;62.25;101146.81;5052033;28;20052;-67
2021/09/13 03:01:43;;;;;;;7.32;3.60;;;;;;;18.39;61.32;101136.47;5052403;28;20053;-67
2021/09/13 03:04:10;;;;;;;10.98;4.20;;;;;;;18.69;60.92;101136.94;5052514;28;20059;-67
2021/09/13 03:06:38;;;;;;;11.85;4.05;;;;;;;18.63;60.69;101136.38;5052398;28;20052;-68
2021/09/13 03:09:06;;;;;;;8.13;4.00;;;;;;;18.63;61.20;101135.56;5052495;28;20045;-68
2021/09/13 03:11:37;;;;;;;8.18;3.53;;;;;;;18.82;60.60;101133.69;5051991;28;20048;-68
2021/09/13 03:14:05;;;;;;;11.05;4.05;;;;;;;18.41;61.29;101136.13;5074873;28;20057;-68
2021/09/13 03:16:34;;;;;;;7.75;3.95;;;;;;;18.58;61.39;101133.03;5052240;28;20074;-68
2021/09/13 03:19:01;;;;;;;14.55;4.45;;;;;;;18.47;61.21;101126.31;5068863;28;20037;-68
2021/09/13 03:21:29;;;;;;;10.15;4.25;;;;;;;18.81;61.15;101129.25;5053588;28;20044;-68
2021/09/13 03:23:56;;;;;;;10.00;3.88;;;;;;;18.67;60.33;101125.31;5052366;28;20099;-67
2021/09/13 03:26:24;;;;;;;10.18;4.53;;;;;;;18.06;61.90;101143.44;5068668;28;20056;-67
2021/09/13 03:28:52;;;;;;;11.55;4.35;;;;;;;18.37;61.88;101129.59;5052380;28;20136;-68
2021/09/13 03:31:20;;;;;;;11.40;4.60;;;;;;;18.47;61.79;101132.72;5053211;28;20053;-67
2021/09/13 03:33:47;;;;;;;9.68;4.50;;;;;;;17.94;63.16;101139.50;5052017;28;20060;-68
2021/09/13 03:36:14;;;;;;;10.15;4.18;;;;;;;18.39;62.00;101121.69;5068148;28;20053;-68
2021/09/13 03:38:42;;;;;;;9.48;4.30;;;;;;;18.54;61.44;101127.34;5068430;28;20056;-68
2021/09/13 03:41:15;;;;;;;8.25;4.43;;;;;;;18.65;61.55;101124.84;5053542;28;20044;-68
2021/09/13 03:43:43;;;;;;;9.57;4.40;;;;;;;18.51;61.36;101124.47;5055665;28;20518;-67
2021/09/13 03:46:11;;;;;;;9.23;4.30;;;;;;;18.66;61.70;101120.88;5056157;28;20056;-68
2021/09/13 03:48:43;;;;;;;9.27;4.68;;;;;;;18.57;61.20;101118.25;5040072;28;20049;-68
2021/09/13 03:51:10;;;;;;;9.82;4.60;;;;;;;18.54;61.74;101126.53;5055169;28;20059;-67
2021/09/13 03:53:38;;;;;;;9.77;4.82;;;;;;;18.32;62.07;101124.28;5057185;28;20469;-67
2021/09/13 03:56:08;;;;;;;9.60;4.10;;;;;;;18.38;62.13;101122.84;5055881;28;20068;-67
2021/09/13 03:58:35;;;;;;;13.05;5.03;;;;;;;17.82;62.62;101124.78;5055358;28;20060;-67
2021/09/13 04:01:03;;;;;;;9.25;4.53;;;;;;;18.21;62.79;101123.16;5072339;28;20057;-68
2021/09/13 04:03:45;;;;;;;9.80;5.30;;;;;;;17.81;63.68;101126.78;5072404;28;20053;-68
2021/09/13 04:06:51;;;;;;;8.73;4.88;;;;;;;17.95;63.92;101126.41;5072540;28;20115;-67
2021/09/13 04:12:20;;;;;;;9.27;4.70;;;;;;;18.63;61.70;101124.38;5057665;28;20049;-66
2021/09/13 04:15:11;;;;;;;9.65;4.65;;;;;;;18.58;61.02;101121.88;5024107;28;20443;-65
2021/09/13 04:18:16;;;;;;;9.45;5.05;;;;;;;17.34;64.60;101130.41;5036575;28;20069;-67
2021/09/13 04:21:07;;;;;;;12.27;5.30;;;;;;;17.15;66.14;101122.66;5035091;28;20050;-67
2021/09/13 04:23:49;;;;;;;11.93;5.10;;;;;;;17.62;64.63;101123.81;5035342;28;20080;-67
2021/09/13 04:26:43;;;;;;;8.32;5.05;;;;;;;17.70;64.70;101122.84;5052110;28;20068;-64
2021/09/13 04:29:33;;;;;;;10.18;4.90;;;;;;;17.68;64.39;101116.81;5034835;28;20057;-63
2021/09/13 04:32:18;;;;;;;15.15;5.65;;;;;;;17.99;63.29;101114.19;5051930;28;20056;-64
2021/09/13 04:35:06;;;;;;;13.68;5.63;;;;;;;18.05;64.23;101120.31;5036201;28;20053;-64
2021/09/13 04:38:11;;;;;;;12.20;4.90;;;;;;;18.40;62.71;101104.63;5028040;28;20049;-65
2021/09/13 04:40:52;;;;;;;12.25;5.00;;;;;;;18.62;61.65;101111.63;5034876;28;20405;-67
2021/09/13 04:43:38;;;;;;;10.40;5.55;;;;;;;18.27;62.81;101116.97;5034502;28;20080;-68
2021/09/13 04:46:37;;;;;;;11.48;5.43;;;;;;;18.42;62.79;101110.69;5013081;28;20056;-67
2021/09/13 04:49:05;;;;;;;10.82;5.20;;;;;;;18.36;62.93;101102.91;5036129;28;20053;-67
2021/09/13 04:51:52;;;;;;;9.23;5.32;;;;;;;18.60;62.03;101111.16;5035660;28;20521;-68
2021/09/13 04:54:40;;;;;;;10.82;5.20;;;;;;;18.42;62.18;101107.06;5035523;28;20053;-68
2021/09/13 04:57:07;;;;;;;12.18;5.25;;;;;;;18.29;61.84;101105.50;5034925;28;20045;-67
2021/09/13 04:59:35;;;;;;;15.27;5.28;;;;;;;18.30;62.18;101105.13;5034452;28;20050;-67
2021/09/13 05:02:03;;;;;;;11.02;5.18;;;;;;;18.31;62.74;101105.91;5034795;28;20049;-64
2021/09/13 05:04:31;;;;;;;10.18;5.47;;;;;;;18.45;62.33;101100.75;5018182;28;20064;-64
2021/09/13 05:06:58;;;;;;;11.88;5.75;;;;;;;18.19;62.52;101092.03;5034721;28;20056;-65
2021/09/13 05:09:26;;;;;;;10.18;6.05;;;;;;;18.00;62.97;101103.84;5036149;28;20046;-64
2021/09/13 05:11:54;;;;;;;10.02;6.13;;;;;;;18.13;63.20;101107.41;5034538;28;20049;-65
2021/09/13 05:14:24;;;;;;;;;;;;;;;17.71;63.87;101104.16;5060530;28;20049;-65
2021/09/13 05:16:52;;;;;;;13.40;7.70;;;;;;;17.12;65.98;101109.41;5055887;28;19920;-65
2021/09/13 05:19:23;;;;;;;14.10;7.28;;;;;;;17.27;66.80;101105.13;5054487;28;20053;-65
2021/09/13 05:21:50;;;;;;;15.13;7.72;;;;;;;17.64;65.58;101099.16;5053785;28;20052;-63
2021/09/13 05:24:19;;;;;;;14.32;7.90;;;;;;;17.62;64.73;101107.09;5036879;28;20056;-63
2021/09/13 05:26:51;;;;;;;16.33;8.30;;;;;;;17.45;65.25;101109.28;5070987;28;20045;-64
2021/09/13 05:29:19;;;;;;;13.48;7.00;;;;;;;17.60;65.91;101108.59;5054034;28;20052;-64
2021/09/13 05:31:46;;;;;;;13.27;7.28;;;;;;;17.65;65.44;101100.81;5070792;28;20053;-64
2021/09/13 05:34:14;;;;;;;13.57;6.90;;;;;;;17.89;64.25;101097.97;5054413;28;20060;-64
2021/09/13 05:36:42;;;;;;;13.65;5.93;;;;;;;18.11;63.79;101096.63;5054008;28;20626;-64
2021/09/13 05:39:09;;;;;;;10.68;6.25;;;;;;;18.24;63.54;101100.13;5055397;28;20053;-64
2021/09/13 05:41:55;;;;;;;9.85;5.75;;;;;;;17.99;63.56;101103.03;5053813;28;20052;-65
2021/09/13 05:44:26;;;;;;;12.23;5.85;;;;;;;17.95;63.57;101104.91;5053585;28;20060;-64
2021/09/13 05:46:57;;;;;;;11.40;5.78;;;;;;;17.78;64.75;101105.19;5053567;28;20056;-64
2021/09/13 05:49:24;;;;;;;9.25;5.38;;;;;;;17.73;65.55;101096.28;5053484;28;20056;-64
2021/09/13 05:51:52;;;;;;;9.80;5.32;;;;;;;17.78;65.10;101099.59;5036583;28;20071;-67
2021/09/13 05:54:35;;;;;;;11.13;6.15;;;;;;;17.71;64.62;101101.38;5070104;28;20053;-67
2021/09/13 05:57:04;;;;;;;12.25;6.05;;;;;;;17.16;66.68;101099.19;5053645;28;20053;-67
2021/09/13 05:59:32;;;;;;;14.75;6.43;;;;;;;17.56;66.06;101102.91;5052962;28;20499;-68
2021/09/13 06:02:03;;;;;;;11.77;6.22;;;;;;;17.95;66.02;101106.88;5069411;28;20428;-68
2021/09/13 06:04:32;;;;;;;14.50;6.15;;;;;;;18.13;65.57;101102.66;5052467;28;20064;-65
2021/09/13 06:07:04;;;;;;;16.02;6.10;;;;;;;17.87;67.92;101108.66;5069806;28;20053;-63
2021/09/13 06:09:32;;;;;;;17.27;6.25;;;;;;;18.07;68.48;101100.44;5053355;28;20371;-62
2021/09/13 06:12:00;;;;;;;13.25;6.30;;;;;;;17.92;66.20;101102.81;5036699;28;20389;-62
2021/09/13 06:14:37;;;;;;;14.50;5.93;;;;;;;18.05;67.40;101108.34;5058740;28;20052;-67
2021/09/13 06:17:04;;;;;;;16.85;7.80;;;;;;;17.87;67.37;101113.41;5051951;28;20048;-69
2021/09/13 06:19:40;;;;;;;14.18;6.30;;;;;;;18.20;67.31;101111.19;5052851;28;20051;-62
2021/09/13 06:22:08;;;;;;;14.75;6.10;;;;;;;18.26;68.00;101100.59;5051716;28;20053;-63
2021/09/13 06:24:39;;;;;;;12.77;5.97;;;;;;;17.99;66.80;101105.03;5055428;28;20057;-62
2021/09/13 06:27:08;;;;;;;12.95;6.40;;;;;;;17.88;67.77;101103.88;5059195;28;20045;-63
2021/09/13 06:29:35;;;;;;;12.07;6.45;;;;;;;18.10;67.42;101103.34;5040000;28;20049;-64
2021/09/13 06:32:03;;;;;;;18.55;6.60;;;;;;;18.48;65.77;101106.44;5056336;28;20519;-63
2021/09/13 06:34:31;;;;;;;15.98;7.13;;;;;;;17.90;66.74;101118.28;5059032;28;20052;-64
2021/09/13 06:36:58;;;;;;;15.18;6.80;;;;;;;18.26;66.07;101108.97;5060937;28;20045;-64
2021/09/13 06:39:26;;;;;;;13.45;6.72;;;;;;;18.42;66.39;101107.06;5055813;28;20045;-64
2021/09/13 06:41:53;;;;;;;24.20;10.98;;;;;;;18.22;64.73;101119.22;5073161;28;20051;-64
2021/09/13 06:44:26;;;;;;;16.40;7.47;;;;;;;17.93;65.77;101128.72;5060767;28;20048;-65
2021/09/13 06:47:22;;;;;;;20.52;7.13;;;;;;;18.11;65.94;101135.66;5061326;28;20060;-64
2021/09/13 06:50:09;;;;;;;18.00;7.53;;;;;;;17.31;66.71;101145.03;5057395;28;20059;-63
2021/09/13 06:52:37;;;;;;;21.85;8.40;;;;;;;17.02;68.16;101131.31;5049353;28;20809;-65
2021/09/13 06:55:06;;;;;;;11.85;7.07;;;;;;;17.12;67.82;101142.00;5071412;28;20060;-65
2021/09/13 06:57:35;;;;;;;18.67;7.32;;;;;;;17.09;67.73;101134.34;5067825;28;20084;-65
2021/09/13 07:00:04;;;;;;;14.60;7.25;;;;;;;17.77;66.43;101136.19;5059799;28;20053;-65
2021/09/13 07:02:32;;;;;;;14.98;7.03;;;;;;;18.03;65.56;101133.78;5053163;28;20060;-64
2021/09/13 07:05:00;;;;;;;19.80;7.35;;;;;;;18.16;64.72;101134.56;5055127;28;20048;-68
2021/09/13 07:07:27;;;;;;;14.52;7.15;;;;;;;18.50;64.11;101133.97;5054369;28;20064;-69
2021/09/13 07:09:55;;;;;;;17.40;7.70;;;;;;;18.69;63.09;101122.97;5042242;28;20061;-68
2021/09/13 07:12:43;;;;;;;19.10;8.27;;;;;;;18.54;62.88;101127.34;5060295;28;20060;-69
2021/09/13 07:15:29;;;;;;;18.60;8.38;;;;;;;17.51;66.68;101127.41;5052017;28;20067;-67
2021/09/13 07:17:58;;;;;;;17.25;8.65;;;;;;;17.53;67.14;101119.50;5059137;28;20057;-67
2021/09/13 07:20:27;;;;;;;22.67;8.65;;;;;;;18.24;65.34;101116.88;5072214;28;20044;-68
2021/09/13 07:22:54;;;;;;;17.10;7.93;;;;;;;18.38;63.95;101114.47;5046961;28;20562;-68
2021/09/13 07:25:21;;;;;;;15.68;8.27;;;;;;;18.49;64.19;101118.41;5070735;28;20052;-67
2021/09/13 07:27:48;;;;;;;17.90;8.60;;;;;;;18.89;64.20;101121.91;5060024;28;20060;-68
2021/09/13 07:30:21;;;;;;;16.45;8.18;;;;;;;18.96;62.95;101110.91;5056549;28;20049;-69
2021/09/13 07:32:48;;;;;;;17.63;9.00;;;;;;;18.61;62.65;101113.59;5065032;28;20056;-68
2021/09/13 07:35:16;;;;;;;16.25;8.68;;;;;;;18.41;64.37;101109.03;5068500;28;20606;-67
2021/09/13 07:37:43;;;;;;;17.00;8.70;;;;;;;18.77;63.94;101114.44;5063418;28;20063;-68
2021/09/13 07:40:11;;;;;;;17.15;8.93;;;;;;;19.11;63.40;101109.31;5075595;28;20462;-69
2021/09/13 07:42:40;;;;;;;16.23;8.45;;;;;;;19.08;62.62;101110.81;5062238;28;20056;-68
2021/09/13 07:45:08;;;;;;;16.33;8.50;;;;;;;19.40;61.79;101106.88;5061945;28;20049;-68
2021/09/13 07:47:36;;;;;;;16.42;8.05;;;;;;;19.62;60.90;101103.38;5054157;28;20060;-69
2021/09/13 07:50:05;;;;;;;16.30;8.88;;;;;;;19.70;60.55;101105.16;5054437;28;20380;-68
2021/09/13 07:52:32;;;;;;;23.23;9.30;;;;;;;19.41;61.47;101107.66;5064111;28;20058;-65
2021/09/13 07:55:00;;;;;;;16.92;8.73;;;;;;;19.74;60.66;101111.63;5064186;28;20068;-65
2021/09/13 07:57:28;;;;;;;22.70;8.52;;;;;;;19.39;60.64;101110.81;5057090;28;20060;-65
2021/09/13 07:59:55;;;;;;;14.20;7.68;;;;;;;19.80;59.84;101099.00;5035516;28;20065;-65
2021/09/13 08:02:25;;;;;;;27.38;9.25;;;;;;;19.70;58.85;101098.78;5033331;28;20049;-65
2021/09/13 08:04:52;;;;;;;20.25;8.07;;;;;;;19.66;59.33;101087.50;5034357;28;20053;-66
2021/09/13 08:07:20;;;;;;;14.70;7.30;;;;;;;19.79;58.34;101091.78;5045644;28;20123;-65
2021/09/13 08:09:47;;;;;;;13.68;8.05;;;;;;;20.01;58.29;101084.66;5063963;28;20053;-66
2021/09/13 08:12:15;;;;;;;20.77;8.35;;;;;;;19.70;58.45;101080.00;5067369;28;20037;-66
2021/09/13 08:14:42;;;;;;;15.45;7.95;;;;;;;19.60;59.13;101091.75;5048469;28;20064;-66
2021/09/13 08:17:11;;;;;;;16.67;7.57;;;;;;;19.71;58.29;101078.84;5063345;28;20047;-65
2021/09/13 08:19:40;;;;;;;19.65;7.60;;;;;;;19.89;58.47;101085.59;5056857;28;20052;-65
2021/09/13 08:22:09;;;;;;;17.08;7.97;;;;;;;19.74;57.65;101086.47;5058456;28;20052;-65
2021/09/13 08:24:39;;;;;;;15.15;7.32;;;;;;;20.13;57.64;101073.31;5067335;28;20063;-65
2021/09/13 08:27:25;;;;;;;22.38;7.43;;;;;;;19.84;57.53;101087.91;5071361;28;20044;-65
2021/09/13 08:29:52;;;;;;;17.95;7.00;;;;;;;19.94;57.66;101082.53;5061189;28;20052;-65
2021/09/13 08:32:20;;;;;;;16.25;7.72;;;;;;;20.01;57.46;101079.06;5063603;28;20053;-65
2021/09/13 08:34:47;;;;;;;18.35;8.20;;;;;;;20.08;57.53;101070.81;5051483;28;20049;-67
2021/09/13 08:37:14;;;;;;;18.60;7.57;;;;;;;20.16;57.02;101064.22;5052796;28;20049;-65
2021/09/13 08:39:41;;;;;;;21.30;7.63;;;;;;;20.26;56.81;101062.81;5062742;28;20053;-67
2021/09/13 08:42:09;;;;;;;19.13;8.65;;;;;;;20.13;56.85;101062.94;5057412;28;20503;-64
2021/09/13 08:44:38;;;;;;;17.42;8.05;;;;;;;20.39;56.78;101076.28;5060855;28;20060;-64
2021/09/13 08:47:13;;;;;;;20.80;8.48;;;;;;;20.47;56.43;101074.44;5070794;28;20048;-64
2021/09/13 08:49:41;;;;;;;24.35;7.55;;;;;;;20.48;56.18;101076.03;5058702;28;20463;-65
2021/09/13 08:52:08;;;;;;;17.67;7.53;;;;;;;20.61;55.41;101078.28;5067557;28;20044;-65
2021/09/13 08:54:38;;;;;;;14.60;6.53;;;;;;;20.77;55.82;101090.19;5058429;28;20135;-65
2021/09/13 08:57:07;;;;;;;14.30;6.70;;;;;;;21.04;54.39;101091.06;5055485;28;20075;-65
2021/09/13 08:59:36;;;;;;;16.60;7.38;;;;;;;21.32;54.03;101094.34;5066942;28;20044;-65
2021/09/13 09:02:04;;;;;;;17.05;7.03;;;;;;;20.70;55.35;101089.22;5056959;28;20060;-64
2021/09/13 09:04:54;;;;;;;14.40;6.90;;;;;;;20.67;55.57;101095.59;5033441;28;20136;-68
2021/09/13 09:07:22;;;;;;;17.17;7.07;;;;;;;20.72;55.29;101101.69;5047680;28;20045;-69
2021/09/13 09:10:16;;;;;;;13.70;6.65;;;;;;;20.42;56.09;101102.69;5063870;28;20053;-69
2021/09/13 09:12:56;;;;;;;20.80;6.95;;;;;;;20.61;55.22;101097.88;5061612;28;20053;-69
2021/09/13 09:15:24;;;;;;;13.40;7.40;;;;;;;20.43;55.71;101090.34;5062896;28;20052;-68
2021/09/13 09:17:53;;;;;;;15.68;6.72;;;;;;;20.31;56.34;101093.28;5056487;28;20048;-69
2021/09/13 09:20:21;;;;;;;14.85;6.95;;;;;;;20.55;55.93;101092.97;5074925;28;20048;-70
2021/09/13 09:23:04;;;;;;;15.73;6.63;;;;;;;20.79;55.07;101093.41;5064940;28;20526;-69
2021/09/13 09:25:36;;;;;;;15.02;6.30;;;;;;;20.97;54.54;101085.31;5054484;28;20411;-68
2021/09/13 09:28:06;;;;;;;12.95;5.45;;;;;;;21.34;54.04;101091.16;5048256;28;20040;-69
2021/09/13 09:30:36;;;;;;;12.57;5.30;;;;;;;21.41;53.77;101088.47;5056845;28;20052;-69
2021/09/13 09:33:06;;;;;;;;;;;;;;;21.41;53.07;101085.66;5058319;28;20046;-68
2021/09/13 09:35:47;;;;;;;12.45;5.93;;;;;;;20.81;54.72;101087.44;5063415;28;19927;-69
2021/09/13 09:38:29;;;;;;;16.27;5.82;;;;;;;20.72;55.11;101084.06;5037136;28;20045;-69
2021/09/13 09:40:59;;;;;;;19.02;6.05;;;;;;;20.53;55.99;101084.13;5057325;28;20053;-68
2021/09/13 09:43:30;;;;;;;13.70;4.70;;;;;;;21.04;54.63;101082.69;5066849;28;20060;-67
2021/09/13 09:45:59;;;;;;;12.30;4.15;;;;;;;21.27;53.90;101077.81;5072369;28;20056;-68
2021/09/13 09:48:32;;;;;;;12.27;4.65;;;;;;;21.57;52.69;101078.69;5037876;28;20048;-68
2021/09/13 09:51:00;;;;;;;9.82;4.10;;;;;;;21.64;52.78;101073.19;5056464;28;20079;-69
2021/09/13 09:53:30;;;;;;;22.17;4.10;;;;;;;21.76;53.25;101069.34;5056956;28;20052;-51
2021/09/13 09:56:17;;;;;;;;;;;;;;;22.27;51.53;101047.97;5058343;28;20093;-53
2021/09/13 09:59:02;;;;;;;8.57;3.50;;;;;;;22.59;49.99;101045.50;5074689;28;19927;-53
2021/09/13 10:01:36;;;;;;;6.78;3.20;;;;;;;22.99;49.71;101043.47;5062931;28;20044;-51
2021/09/13 10:04:11;;;;;;;8.88;3.42;;;;;;;23.19;48.47;101041.19;5065187;28;20052;-49
2021/09/13 10:06:43;;;;;;;9.05;3.60;;;;;;;23.15;48.70;101032.75;5074458;28;20044;-51
2021/09/13 10:09:12;;;;;;;16.00;4.30;;;;;;;23.04;48.80;101019.81;5072005;28;20052;-57
2021/09/13 10:11:40;;;;;;;10.90;3.40;;;;;;;23.17;47.98;101021.91;5055883;28;20051;-54
2021/09/13 10:14:13;;;;;;;10.82;3.38;;;;;;;23.27;48.29;101014.75;5071736;28;20067;-52
2021/09/13 10:16:41;;;;;;;11.48;3.80;;;;;;;23.22;48.67;101023.56;5059290;28;20058;-51
2021/09/13 10:19:15;;;;;;;9.60;3.00;;;;;;;23.43;48.13;101015.31;5048200;28;20063;-53
2021/09/13 10:21:42;;;;;;;15.15;3.47;;;;;;;23.57;47.30;101021.00;5054820;28;20488;-54
2021/09/13 10:24:22;;;;;;;9.38;3.38;;;;;;;23.47;47.54;101015.31;5054177;28;20041;-52
2021/09/13 10:26:55;;;;;;;9.38;3.38;;;;;;;23.39;47.88;101014.47;5035238;28;20053;-52
2021/09/13 10:29:25;;;;;;;8.55;3.47;;;;;;;23.32;48.39;101015.25;5052015;28;20056;-51
2021/09/13 10:31:54;;;;;;;7.93;2.90;;;;;;;23.52;48.45;101014.94;5053692;28;20048;-53
2021/09/13 10:34:45;;;;;;;8.88;2.97;;;;;;;23.57;48.11;101009.75;5053606;28;20398;-52
2021/09/13 10:37:21;;;;;;;13.50;3.25;;;;;;;23.43;48.06;101002.03;5052706;28;20057;-52
2021/09/13 10:39:54;;;;;;;10.68;3.30;;;;;;;23.45;48.38;101009.28;5053233;28;20645;-56
2021/09/13 10:42:39;;;;;;;7.95;3.17;;;;;;;23.67;48.08;101006.19;5053608;28;20046;-51
2021/09/13 10:45:24;;;;;;;11.23;3.50;;;;;;;23.57;48.41;101001.31;5054576;28;20056;-53
2021/09/13 10:47:54;;;;;;;7.53;3.13;;;;;;;23.42;48.62;101006.06;5033718;28;20057;-49
2021/09/13 10:50:35;;;;;;;8.30;3.35;;;;;;;23.51;47.79;100997.25;5048415;28;20488;-52
2021/09/13 10:53:24;;;;;;;8.20;3.33;;;;;;;23.45;47.69;100996.00;5053903;28;20052;-53
2021/09/13 10:56:05;;;;;;;8.00;2.90;;;;;;;23.50;48.06;101001.28;5054308;28;20496;-53
2021/09/13 10:58:40;;;;;;;14.60;3.50;;;;;;;23.52;48.16;100993.22;5054190;28;20506;-51
2021/09/13 11:01:10;;;;;;;8.43;3.00;;;;;;;23.57;47.64;100981.63;5053312;28;20099;-53
2021/09/13 11:03:39;;;;;;;8.05;2.85;;;;;;;23.60;47.58;100988.47;5054708;28;20053;-56
2021/09/13 11:06:08;;;;;;;12.52;4.60;;;;;;;23.50;47.67;100973.16;5053881;28;20044;-53
2021/09/13 11:08:37;;;;;;;10.68;3.17;;;;;;;23.59;48.14;100979.22;5043433;28;20405;-53
2021/09/13 11:11:27;;;;;;;8.10;3.13;;;;;;;23.57;47.98;100978.00;5035607;28;20055;-55
2021/09/13 11:14:09;;;;;;;7.80;2.97;;;;;;;23.29;48.47;100984.28;5038710;28;20041;-53
2021/09/13 11:16:38;;;;;;;7.03;2.92;;;;;;;23.35;48.33;100966.66;5046370;28;20053;-52
2021/09/13 11:19:10;;;;;;;6.28;2.92;;;;;;;23.46;48.49;100966.72;5049967;28;20523;-54
2021/09/13 11:21:45;;;;;;;7.40;2.85;;;;;;;23.38;47.97;100970.66;5051984;28;20055;-51
2021/09/13 11:24:15;;;;;;;8.10;3.10;;;;;;;23.30;48.07;100967.03;5067375;28;20048;-55
2021/09/13 11:26:57;;;;;;;4.95;2.83;;;;;;;23.46;48.38;100961.09;5077422;28;20050;-55
2021/09/13 11:29:31;;;;;;;6.32;2.55;;;;;;;23.51;47.97;100955.06;5054082;28;20049;-53
2021/09/13 11:32:01;;;;;;;9.35;2.72;;;;;;;23.65;47.85;100955.13;5050913;28;20049;-54
2021/09/13 11:34:36;;;;;;;7.47;2.95;;;;;;;23.88;46.89;100958.44;5056147;28;20649;-53
2021/09/13 11:37:14;;;;;;;8.52;2.80;;;;;;;23.67;47.31;100949.13;5055710;28;20037;-53
2021/09/13 11:40:03;;;;;;;6.43;3.20;;;;;;;23.70;47.49;100957.56;5054306;28;20057;-53
2021/09/13 11:42:33;;;;;;;6.22;2.55;;;;;;;23.56;48.22;100954.69;5044407;28;20049;-55
2021/09/13 11:45:07;;;;;;;;;;;;;;;23.90;47.38;100958.03;5060624;28;20156;-55